Terminal Aerodrome Forecast
Issued by NWS Chicago, IL

Home | Current Version | Previous Version | Graphics & Text | Print | Product List | Glossary On
Versions: 1 2 3 4 5 6 7 8 9 10 11 12 13 14 15 16 17 18 19 20 21 22 23 24 25 26 27 28 29 30
000
FTUS43 KLOT 230300 AAB
TAFRFD
TAF AMD
KRFD 230300Z 2303/2324 VRB03KT 5SM BR VCSH SCT030 BKN070
     FM230600 02005KT 5SM BR VCSH SCT030 BKN050
     FM231100 06007KT 4SM BR VCSH SCT008 OVC015
     FM231600 07009KT P6SM SCT010 BKN020=

USA.gov is the U.S. government's official web portal to all federal, state and local government web resources and services.